createdAt,value
2018-09-14T00:01:38.049Z,90.85
2018-09-14T00:04:07.826Z,90.68
2018-09-14T00:06:37.488Z,90.40
2018-09-14T00:09:11.073Z,90.66
2018-09-14T00:11:40.768Z,90.95
2018-09-14T00:14:10.430Z,90.87
2018-09-14T00:16:40.210Z,90.62
2018-09-14T00:19:09.887Z,90.52
2018-09-14T00:21:39.541Z,90.92
2018-09-14T00:24:09.301Z,90.73
2018-09-14T00:26:38.968Z,90.88
2018-09-14T00:29:08.660Z,91.16
2018-09-14T00:31:38.371Z,91.04
2018-09-14T00:34:08.345Z,91.50
2018-09-14T00:36:38.028Z,91.30
2018-09-14T00:39:10.545Z,91.17
2018-09-14T00:41:40.454Z,91.51
2018-09-14T00:44:10.334Z,90.83
2018-09-14T00:46:40.080Z,91.32
2018-09-14T00:49:09.728Z,91.09
2018-09-14T00:51:39.416Z,91.59
2018-09-14T00:54:09.239Z,90.83
2018-09-14T00:56:38.864Z,90.89
2018-09-14T00:59:08.569Z,90.96
2018-09-14T01:01:38.252Z,90.74
2018-09-14T01:04:07.959Z,90.14
2018-09-14T01:06:37.573Z,89.99
2018-09-14T01:09:29.016Z,89.40
2018-09-14T01:11:59.511Z,89.50
2018-09-14T01:14:29.459Z,89.87
2018-09-14T01:16:59.359Z,89.40
2018-09-14T01:19:29.215Z,89.00
2018-09-14T01:21:58.815Z,88.80
2018-09-14T01:24:28.451Z,89.02
2018-09-14T01:26:58.264Z,89.13
2018-09-14T01:29:27.855Z,89.39
2018-09-14T01:31:57.675Z,89.34
2018-09-14T01:34:27.532Z,88.87
2018-09-14T01:36:57.139Z,89.01
2018-09-14T01:39:26.799Z,88.74
2018-09-14T01:41:56.659Z,88.63
2018-09-14T01:44:26.371Z,88.72
2018-09-14T01:46:56.014Z,88.54
2018-09-14T01:49:25.643Z,88.80
2018-09-14T01:51:55.273Z,88.64
2018-09-14T01:54:25.377Z,88.51
2018-09-14T01:56:55.040Z,88.28
2018-09-14T01:59:24.520Z,88.67
2018-09-14T02:01:53.942Z,87.82
2018-09-14T02:04:23.365Z,87.95
2018-09-14T02:06:52.755Z,87.55
2018-09-14T02:09:22.254Z,87.70
2018-09-14T02:11:51.651Z,88.16
2018-09-14T02:14:21.104Z,87.45
2018-09-14T02:16:50.500Z,87.69
2018-09-14T02:19:20.115Z,87.36
2018-09-14T02:21:49.844Z,87.50
2018-09-14T02:24:19.276Z,87.53
2018-09-14T02:26:48.834Z,87.47
2018-09-14T02:29:18.248Z,87.18
2018-09-14T02:31:47.634Z,87.23
2018-09-14T02:34:17.055Z,87.40
2018-09-14T02:36:46.469Z,87.08
2018-09-14T02:39:15.870Z,87.19
2018-09-14T02:41:45.583Z,87.03
2018-09-14T02:44:15.024Z,87.29
2018-09-14T02:46:44.390Z,87.40
2018-09-14T02:49:13.879Z,86.54
2018-09-14T02:51:43.277Z,86.40
2018-09-14T02:54:12.826Z,86.85
2018-09-14T02:56:42.396Z,86.64
2018-09-14T02:59:11.771Z,86.83
2018-09-14T03:01:41.175Z,86.53
2018-09-14T03:04:10.595Z,86.43
2018-09-14T03:06:39.983Z,86.87
2018-09-14T03:09:10.063Z,86.46
2018-09-14T03:11:39.527Z,87.05
2018-09-14T03:14:08.912Z,87.13
2018-09-14T03:16:38.335Z,86.94
2018-09-14T03:19:07.861Z,87.71
2018-09-14T03:21:37.235Z,87.13
2018-09-14T03:24:06.864Z,88.05
2018-09-14T03:26:36.287Z,87.98
2018-09-14T03:29:05.805Z,88.00
2018-09-14T03:31:35.260Z,88.39
2018-09-14T03:34:04.868Z,88.88
2018-09-14T03:36:34.256Z,88.34
2018-09-14T03:39:04.490Z,88.17
2018-09-14T03:41:33.848Z,88.26
2018-09-14T03:44:03.224Z,88.40
2018-09-14T03:46:32.605Z,88.45
2018-09-14T03:49:02.041Z,88.25
2018-09-14T03:51:31.500Z,87.40
2018-09-14T03:54:01.994Z,87.18
2018-09-14T03:56:31.388Z,87.51
2018-09-14T03:59:00.808Z,87.74
2018-09-14T04:01:30.184Z,87.22
2018-09-14T04:03:59.601Z,87.44
2018-09-14T04:06:28.991Z,87.21
2018-09-14T04:08:58.379Z,87.25
2018-09-14T04:11:27.959Z,87.27
2018-09-14T04:13:57.407Z,87.32
2018-09-14T04:16:26.855Z,86.86
2018-09-14T04:19:02.153Z,87.08
2018-09-14T04:21:32.792Z,86.87
2018-09-14T04:24:02.463Z,86.94
2018-09-14T04:26:31.915Z,86.87
2018-09-14T04:29:01.627Z,87.00
2018-09-14T04:31:31.032Z,86.71
2018-09-14T04:34:00.560Z,86.63
2018-09-14T04:36:30.086Z,87.09
2018-09-14T04:38:59.519Z,87.40
2018-09-14T04:41:28.943Z,87.74
2018-09-14T04:43:58.324Z,87.09
2018-09-14T04:46:27.724Z,87.48
2018-09-14T04:48:57.145Z,87.42
2018-09-14T04:51:26.557Z,87.84
2018-09-14T04:53:56.067Z,87.44
2018-09-14T04:56:25.496Z,88.10
2018-09-14T04:58:54.969Z,88.42
2018-09-14T05:01:24.400Z,88.28
2018-09-14T05:03:53.863Z,87.86
2018-09-14T05:06:23.291Z,87.56
2018-09-14T05:08:52.689Z,88.34
2018-09-14T05:11:22.104Z,88.33
2018-09-14T05:13:51.520Z,87.64
2018-09-14T05:16:20.953Z,87.51
2018-09-14T05:18:50.403Z,87.65
2018-09-14T05:21:19.908Z,87.88
2018-09-14T05:23:49.378Z,88.15
2018-09-14T05:26:18.856Z,88.02
2018-09-14T05:28:48.437Z,87.95
2018-09-14T05:31:17.880Z,88.04
2018-09-14T05:33:47.376Z,88.15
2018-09-14T05:36:16.812Z,87.73
2018-09-14T05:38:46.219Z,87.32
2018-09-14T05:41:15.853Z,87.27
2018-09-14T05:43:45.270Z,86.67
2018-09-14T05:46:14.683Z,86.37
2018-09-14T05:48:44.167Z,86.29
2018-09-14T05:51:13.615Z,86.20
2018-09-14T05:53:43.065Z,86.24
2018-09-14T05:56:12.633Z,86.06
2018-09-14T05:58:42.088Z,85.87
2018-09-14T06:01:11.483Z,84.72
2018-09-14T06:03:41.235Z,84.53
2018-09-14T06:06:10.623Z,84.51
2018-09-14T06:08:46.759Z,83.87
2018-09-14T06:11:16.171Z,83.19
2018-09-14T06:13:45.583Z,82.40
2018-09-14T06:16:15.029Z,81.92
2018-09-14T06:18:44.471Z,81.64
2018-09-14T06:21:13.875Z,80.46
2018-09-14T06:23:43.380Z,79.74
2018-09-14T06:26:12.781Z,79.37
2018-09-14T06:28:42.187Z,79.74
2018-09-14T06:31:11.719Z,78.27
2018-09-14T06:33:41.144Z,77.83
2018-09-14T06:36:10.585Z,77.17
2018-09-14T06:38:40.139Z,76.82
2018-09-14T06:41:09.557Z,76.25
2018-09-14T06:43:39.008Z,75.64
2018-09-14T06:46:08.638Z,74.37
2018-09-14T06:48:38.055Z,73.89
2018-09-14T06:51:07.582Z,73.83
2018-09-14T06:53:37.016Z,72.70
2018-09-14T06:56:06.459Z,72.39
2018-09-14T06:58:35.881Z,72.31
2018-09-14T07:01:05.331Z,71.83
2018-09-14T07:03:34.824Z,72.04
2018-09-14T07:06:04.264Z,72.24
2018-09-14T07:08:33.755Z,71.13
2018-09-14T07:11:03.144Z,70.47
2018-09-14T07:13:32.546Z,70.57
2018-09-14T07:16:01.964Z,70.12
2018-09-14T07:18:31.396Z,69.72
2018-09-14T07:21:00.828Z,68.93
2018-09-14T07:23:30.276Z,68.28
2018-09-14T07:25:59.679Z,67.35
2018-09-14T07:28:29.087Z,66.83
2018-09-14T07:30:58.504Z,66.55
2018-09-14T07:33:27.919Z,66.10
2018-09-14T07:35:57.357Z,65.61
2018-09-14T07:38:26.794Z,65.20
2018-09-14T07:40:56.217Z,65.26
2018-09-14T07:43:25.666Z,64.42
2018-09-14T07:45:55.111Z,64.39
2018-09-14T07:48:24.592Z,63.85
2018-09-14T07:50:53.977Z,63.24
2018-09-14T07:53:23.424Z,62.75
2018-09-14T07:55:52.824Z,62.44
2018-09-14T07:58:22.231Z,62.25
2018-09-14T08:00:51.896Z,61.92
2018-09-14T08:03:21.342Z,60.69
2018-09-14T08:05:50.780Z,60.66
2018-09-14T08:08:20.415Z,59.29
2018-09-14T08:10:49.888Z,59.18
2018-09-14T08:13:19.399Z,58.72
2018-09-14T08:15:48.766Z,57.32
2018-09-14T08:18:18.248Z,57.33
2018-09-14T08:20:47.678Z,56.63
2018-09-14T08:23:17.161Z,56.15
2018-09-14T08:25:46.607Z,56.15
2018-09-14T08:28:16.068Z,55.57
2018-09-14T08:30:45.500Z,54.89
2018-09-14T08:33:15.051Z,54.47
2018-09-14T08:35:44.513Z,53.88
2018-09-14T08:38:14.127Z,53.21
2018-09-14T08:40:43.564Z,52.59
2018-09-14T08:43:13.022Z,52.53
2018-09-14T08:45:42.471Z,51.86
2018-09-14T08:48:11.908Z,50.90
2018-09-14T08:50:41.412Z,49.71
2018-09-14T08:53:10.972Z,49.12
2018-09-14T08:55:40.422Z,49.20
2018-09-14T08:58:09.874Z,47.50
2018-09-14T09:00:39.394Z,46.37
2018-09-14T09:03:08.862Z,44.24
2018-09-14T09:05:38.295Z,42.79
2018-09-14T09:08:07.748Z,41.71
2018-09-14T09:10:37.199Z,39.27
2018-09-14T09:13:06.613Z,37.70
2018-09-14T09:15:36.085Z,37.31
2018-09-14T09:18:05.479Z,38.71
2018-09-14T09:20:34.854Z,38.65
2018-09-14T09:23:04.306Z,39.84
2018-09-14T09:25:33.704Z,39.30
2018-09-14T09:28:03.144Z,39.31
2018-09-14T09:30:32.668Z,39.64
2018-09-14T09:33:02.089Z,40.23
2018-09-14T09:35:31.541Z,40.93
2018-09-14T09:38:01.362Z,42.21
2018-09-14T09:40:30.834Z,43.29
2018-09-14T09:43:00.305Z,43.34
2018-09-14T09:45:29.867Z,43.77
2018-09-14T09:47:59.431Z,44.65
2018-09-14T09:50:28.927Z,45.11
2018-09-14T09:52:58.690Z,45.41
2018-09-14T09:55:28.204Z,45.54
2018-09-14T09:57:57.643Z,46.53
2018-09-14T10:00:32.183Z,47.04
2018-09-14T10:04:09.648Z,47.52
2018-09-14T10:06:39.025Z,47.68
2018-09-14T10:09:09.816Z,48.00
2018-09-14T10:11:39.249Z,49.26
2018-09-14T10:14:08.751Z,49.12
2018-09-14T10:16:38.143Z,48.84
2018-09-14T10:19:07.566Z,49.83
2018-09-14T10:21:37.114Z,49.47
2018-09-14T10:24:08.387Z,49.91
2018-09-14T10:26:37.821Z,50.27
2018-09-14T10:29:07.788Z,50.99
2018-09-14T10:31:37.248Z,51.11
2018-09-14T10:34:13.080Z,50.45
2018-09-14T10:36:42.532Z,51.11
2018-09-14T10:39:12.675Z,50.88
2018-09-14T10:41:42.120Z,51.51
2018-09-14T10:44:11.530Z,51.61
2018-09-14T10:46:40.963Z,51.68
2018-09-14T10:49:10.440Z,51.55
2018-09-14T10:51:39.852Z,52.12
2018-09-14T10:54:09.354Z,51.87
2018-09-14T10:56:38.814Z,51.15
2018-09-14T10:59:08.208Z,51.66
2018-09-14T11:01:37.599Z,51.29
2018-09-14T11:04:07.067Z,51.79
2018-09-14T11:06:36.498Z,51.33
2018-09-14T11:09:10.808Z,52.14
2018-09-14T11:11:40.291Z,51.66
2018-09-14T11:14:10.133Z,52.03
2018-09-14T11:16:39.555Z,51.20
2018-09-14T11:19:09.020Z,51.98
2018-09-14T11:21:38.408Z,52.20
2018-09-14T11:24:07.851Z,51.83
2018-09-14T11:26:37.257Z,51.84
2018-09-14T11:29:06.679Z,51.97
2018-09-14T11:31:36.168Z,51.58
2018-09-14T11:34:06.452Z,52.07
2018-09-14T11:36:36.621Z,51.99
2018-09-14T11:39:09.772Z,51.03
2018-09-14T11:41:39.775Z,51.46
2018-09-14T11:44:09.791Z,51.05
2018-09-14T11:46:39.569Z,51.08
2018-09-14T11:49:09.584Z,51.26
2018-09-14T11:51:39.205Z,51.42
2018-09-14T11:54:09.149Z,51.67
2018-09-14T11:56:38.762Z,51.55
2018-09-14T11:59:08.408Z,51.48
2018-09-14T12:01:38.185Z,51.27
2018-09-14T12:04:07.862Z,50.96
2018-09-14T12:06:37.800Z,50.62
2018-09-14T12:09:11.180Z,49.88
2018-09-14T12:11:41.239Z,50.33
2018-09-14T12:14:11.366Z,49.86
2018-09-14T12:16:41.209Z,49.42
2018-09-14T12:19:11.038Z,48.41
2018-09-14T12:21:40.794Z,48.09
2018-09-14T12:24:10.845Z,48.29
2018-09-14T12:26:40.603Z,48.25
2018-09-14T12:29:10.356Z,46.80
2018-09-14T12:31:40.160Z,46.63
2018-09-14T12:34:09.718Z,47.02
2018-09-14T12:36:39.405Z,46.85
2018-09-14T12:39:10.443Z,45.42
2018-09-14T12:41:40.276Z,45.05
2018-09-14T12:44:10.128Z,44.11
2018-09-14T12:46:39.878Z,44.35
2018-09-14T12:49:10.037Z,43.88
2018-09-14T12:51:39.960Z,42.94
2018-09-14T12:54:10.113Z,43.66
2018-09-14T12:56:41.770Z,42.91
2018-09-14T12:59:11.531Z,42.94
2018-09-14T13:01:41.782Z,43.68
2018-09-14T13:04:11.539Z,43.77
2018-09-14T13:06:41.529Z,45.12
2018-09-14T13:09:12.496Z,45.94
2018-09-14T13:11:42.398Z,46.04
2018-09-14T13:14:12.049Z,46.59
2018-09-14T13:16:41.783Z,47.08
2018-09-14T13:19:11.580Z,47.75
2018-09-14T13:21:41.243Z,48.01
2018-09-14T13:24:10.936Z,47.84
2018-09-14T13:26:40.785Z,47.47
2018-09-14T13:29:10.555Z,47.24
2018-09-14T13:31:40.553Z,47.16
2018-09-14T13:34:10.472Z,46.18
2018-09-14T13:36:40.043Z,45.50
2018-09-14T13:39:10.731Z,45.65
2018-09-14T13:41:40.159Z,45.41
2018-09-14T13:44:09.692Z,45.56
2018-09-14T13:46:39.123Z,45.59
2018-09-14T13:49:08.543Z,45.32
2018-09-14T13:51:37.990Z,45.81
2018-09-14T13:54:07.477Z,45.90
2018-09-14T13:56:36.922Z,45.86
2018-09-14T13:59:06.408Z,45.56
2018-09-14T14:01:35.858Z,45.39
2018-09-14T14:04:05.580Z,45.34
2018-09-14T14:06:34.985Z,45.09
2018-09-14T14:09:06.647Z,44.98
2018-09-14T14:11:36.103Z,44.89
2018-09-14T14:14:05.585Z,44.40
2018-09-14T14:16:35.041Z,44.42
2018-09-14T14:19:04.453Z,44.13
2018-09-14T14:21:33.861Z,44.95
2018-09-14T14:24:03.334Z,44.90
2018-09-14T14:26:33.039Z,44.54
2018-09-14T14:29:02.579Z,44.19
2018-09-14T14:31:32.023Z,44.73
2018-09-14T14:34:01.456Z,45.06
2018-09-14T14:36:31.050Z,44.84
2018-09-14T14:39:00.556Z,44.30
2018-09-14T14:41:30.981Z,43.88
2018-09-14T14:44:00.379Z,44.12
2018-09-14T14:46:30.058Z,43.20
2018-09-14T14:48:59.627Z,43.13
2018-09-14T14:51:29.043Z,43.40
2018-09-14T14:53:58.523Z,43.77
2018-09-14T14:56:28.072Z,43.70
2018-09-14T14:58:57.556Z,43.77
2018-09-14T15:01:26.989Z,44.14
2018-09-14T15:03:56.421Z,43.42
2018-09-14T15:06:25.840Z,44.24
2018-09-14T15:08:55.375Z,44.13
2018-09-14T15:11:24.775Z,44.38
2018-09-14T15:13:54.216Z,44.61
2018-09-14T15:16:23.656Z,44.43
2018-09-14T15:18:53.260Z,44.41
2018-09-14T15:21:22.691Z,44.98
2018-09-14T15:23:52.147Z,44.90
2018-09-14T15:26:21.573Z,44.36
2018-09-14T15:28:51.005Z,43.98
2018-09-14T15:31:20.489Z,44.89
2018-09-14T15:33:49.940Z,44.96
2018-09-14T15:36:19.393Z,44.53
2018-09-14T15:38:49.028Z,44.51
2018-09-14T15:41:18.468Z,44.50
2018-09-14T15:43:47.906Z,44.64
2018-09-14T15:46:17.380Z,45.38
2018-09-14T15:48:46.899Z,45.29
2018-09-14T15:51:16.556Z,45.13
2018-09-14T15:53:46.009Z,45.47
2018-09-14T15:56:15.449Z,45.81
2018-09-14T15:58:44.927Z,45.80
2018-09-14T16:01:14.550Z,46.64
2018-09-14T16:03:43.947Z,46.02
2018-09-14T16:06:13.379Z,46.25
2018-09-14T16:08:43.372Z,46.49
2018-09-14T16:11:12.833Z,46.28
2018-09-14T16:13:42.269Z,46.60
2018-09-14T16:16:11.648Z,47.46
2018-09-14T16:18:41.040Z,47.09
2018-09-14T16:21:10.435Z,46.97
2018-09-14T16:23:39.918Z,47.43
2018-09-14T16:26:10.512Z,48.03
2018-09-14T16:28:39.922Z,47.58
2018-09-14T16:31:09.365Z,47.92
2018-09-14T16:33:38.905Z,48.38
2018-09-14T16:36:08.441Z,48.42
2018-09-14T16:38:37.872Z,48.63
2018-09-14T16:41:07.437Z,48.98
2018-09-14T16:43:36.840Z,49.22
2018-09-14T16:46:06.447Z,49.46
2018-09-14T16:48:35.880Z,49.94
2018-09-14T16:51:05.286Z,50.23
2018-09-14T16:53:34.730Z,50.50
2018-09-14T16:56:04.183Z,51.15
2018-09-14T16:58:33.599Z,51.72
2018-09-14T17:01:03.065Z,52.30
2018-09-14T17:03:32.483Z,51.86
2018-09-14T17:06:01.869Z,52.28
2018-09-14T17:08:31.313Z,53.10
2018-09-14T17:11:00.721Z,53.40
2018-09-14T17:13:30.144Z,53.66
2018-09-14T17:15:59.600Z,54.02
2018-09-14T17:18:29.003Z,54.40
2018-09-14T17:20:58.428Z,54.32
2018-09-14T17:23:27.857Z,54.61
2018-09-14T17:25:57.365Z,54.70
2018-09-14T17:28:26.756Z,55.39
2018-09-14T17:30:56.440Z,55.39
2018-09-14T17:33:25.831Z,56.30
2018-09-14T17:35:55.591Z,56.08
2018-09-14T17:38:25.105Z,56.20
2018-09-14T17:40:54.521Z,57.36
2018-09-14T17:43:23.960Z,57.17
2018-09-14T17:45:53.436Z,57.16
2018-09-14T17:48:22.824Z,57.93
2018-09-14T17:50:52.277Z,58.75
2018-09-14T17:53:22.828Z,59.26
2018-09-14T17:55:52.268Z,59.47
2018-09-14T17:58:21.688Z,59.85
2018-09-14T18:00:51.156Z,60.01
2018-09-14T18:03:20.817Z,60.66
2018-09-14T18:05:50.164Z,60.93
2018-09-14T18:08:19.622Z,61.63
2018-09-14T18:10:49.061Z,61.84
2018-09-14T18:13:18.532Z,62.26
2018-09-14T18:15:47.983Z,62.58
2018-09-14T18:18:17.416Z,62.93
2018-09-14T18:20:46.820Z,62.97
2018-09-14T18:23:16.246Z,62.80
2018-09-14T18:25:45.684Z,63.45
2018-09-14T18:28:15.252Z,63.31
2018-09-14T18:30:44.804Z,63.49
2018-09-14T18:33:14.239Z,63.49
2018-09-14T18:35:43.646Z,64.37
2018-09-14T18:38:13.176Z,64.64
2018-09-14T18:40:42.634Z,64.98
2018-09-14T18:43:12.101Z,65.26
2018-09-14T18:45:41.544Z,65.41
2018-09-14T18:48:10.992Z,65.32
2018-09-14T18:50:40.403Z,65.62
2018-09-14T18:53:10.628Z,66.42
2018-09-14T18:55:40.106Z,67.35
2018-09-14T18:58:09.500Z,68.11
2018-09-14T19:00:39.053Z,68.66
2018-09-14T19:03:08.498Z,69.06
2018-09-14T19:05:37.915Z,69.18
2018-09-14T19:08:07.435Z,70.47
2018-09-14T19:10:36.844Z,71.10
2018-09-14T19:13:06.279Z,71.89
2018-09-14T19:15:35.764Z,71.95
2018-09-14T19:18:05.188Z,72.66
2018-09-14T19:20:34.744Z,73.37
2018-09-14T19:23:04.156Z,73.39
2018-09-14T19:25:33.576Z,74.11
2018-09-14T19:28:03.012Z,74.75
2018-09-14T19:30:32.592Z,74.70
2018-09-14T19:33:01.991Z,75.40
2018-09-14T19:35:31.422Z,76.07
2018-09-14T19:38:01.936Z,75.86
2018-09-14T19:40:32.541Z,76.69
2018-09-14T19:43:02.177Z,76.55
2018-09-14T19:45:31.640Z,76.62
2018-09-14T19:48:01.454Z,76.88
2018-09-14T19:50:31.045Z,77.55
2018-09-14T19:53:02.347Z,77.66
2018-09-14T19:55:31.958Z,78.49
2018-09-14T19:58:02.033Z,78.46
2018-09-14T20:00:31.471Z,79.01
2018-09-14T20:03:00.899Z,78.96
2018-09-14T20:05:30.290Z,79.51
2018-09-14T20:07:59.685Z,79.85
2018-09-14T20:10:29.298Z,79.76
2018-09-14T20:12:58.713Z,80.00
2018-09-14T20:15:28.173Z,80.38
2018-09-14T20:17:57.783Z,80.60
2018-09-14T20:20:27.119Z,80.60
2018-09-14T20:22:56.523Z,80.89
2018-09-14T20:25:26.007Z,81.77
2018-09-14T20:27:55.405Z,81.29
2018-09-14T20:30:24.848Z,82.04
2018-09-14T20:32:54.435Z,82.00
2018-09-14T20:35:23.838Z,81.56
2018-09-14T20:37:53.240Z,80.83
2018-09-14T20:40:22.668Z,81.14
2018-09-14T20:42:52.081Z,80.54
2018-09-14T20:45:22.165Z,80.15
2018-09-14T20:47:51.764Z,80.76
2018-09-14T20:50:21.196Z,80.37
2018-09-14T20:52:50.600Z,80.29
2018-09-14T20:55:20.460Z,79.47
2018-09-14T20:57:49.930Z,79.43
2018-09-14T21:00:23.947Z,79.24
2018-09-14T21:02:54.191Z,79.24
2018-09-14T21:05:23.639Z,79.47
2018-09-14T21:07:53.243Z,79.74
2018-09-14T21:10:22.631Z,78.90
2018-09-14T21:12:52.040Z,79.31
2018-09-14T21:15:21.515Z,78.89
2018-09-14T21:17:50.917Z,79.48
2018-09-14T21:20:20.377Z,79.86
2018-09-14T21:22:49.827Z,79.39
2018-09-14T21:25:19.259Z,79.12
2018-09-14T21:27:48.740Z,79.68
2018-09-14T21:30:18.175Z,79.16
2018-09-14T21:32:47.588Z,79.54
2018-09-14T21:35:17.008Z,79.37
2018-09-14T21:37:46.441Z,79.50
2018-09-14T21:40:15.885Z,79.12
2018-09-14T21:42:45.623Z,79.26
2018-09-14T21:45:15.064Z,79.70
2018-09-14T21:47:44.451Z,78.86
2018-09-14T21:50:13.853Z,78.86
2018-09-14T21:52:43.276Z,78.67
2018-09-14T21:55:13.337Z,79.21
2018-09-14T21:57:43.040Z,78.78
2018-09-14T22:00:18.046Z,79.17
2018-09-14T22:02:47.552Z,78.44
2018-09-14T22:05:17.060Z,78.81
2018-09-14T22:07:46.700Z,78.49
2018-09-14T22:10:16.141Z,78.86
2018-09-14T22:12:45.728Z,78.50
2018-09-14T22:15:15.188Z,78.11
2018-09-14T22:17:44.651Z,78.02
2018-09-14T22:20:14.126Z,78.36
2018-09-14T22:22:45.078Z,78.32
2018-09-14T22:25:14.508Z,77.59
2018-09-14T22:27:43.966Z,77.93
2018-09-14T22:30:13.340Z,78.01
2018-09-14T22:32:42.748Z,78.00
2018-09-14T22:35:12.217Z,77.67
2018-09-14T22:37:42.334Z,77.55
2018-09-14T22:40:12.136Z,77.93
2018-09-14T22:42:41.552Z,78.10
2018-09-14T22:45:11.072Z,77.11
2018-09-14T22:47:40.452Z,76.97
2018-09-14T22:50:09.900Z,77.24
2018-09-14T22:52:39.329Z,77.35
2018-09-14T22:55:08.896Z,77.72
2018-09-14T22:57:38.417Z,77.01
2018-09-14T23:00:08.020Z,76.95
2018-09-14T23:02:37.448Z,77.12
2018-09-14T23:05:06.915Z,77.25
2018-09-14T23:07:36.340Z,76.52
2018-09-14T23:10:05.802Z,76.68
2018-09-14T23:12:35.200Z,76.45
2018-09-14T23:15:04.875Z,76.85
2018-09-14T23:17:34.262Z,76.37
2018-09-14T23:20:04.016Z,76.57
2018-09-14T23:22:33.456Z,76.14
2018-09-14T23:25:02.949Z,76.67
2018-09-14T23:27:32.362Z,76.25
2018-09-14T23:30:01.829Z,75.61
2018-09-14T23:32:31.256Z,75.46
2018-09-14T23:35:00.676Z,75.96
2018-09-14T23:37:30.144Z,75.49
2018-09-14T23:39:59.717Z,76.32
2018-09-14T23:42:29.229Z,76.31
2018-09-14T23:44:58.660Z,76.20
2018-09-14T23:47:28.316Z,75.98
2018-09-14T23:49:57.781Z,76.81
2018-09-14T23:52:27.211Z,76.68
2018-09-14T23:54:56.604Z,77.19
2018-09-14T23:57:26.038Z,76.86
2018-09-14T23:59:55.507Z,77.73
